SJYS weather

Camará Airport
Normândia, Roraima, Brazil

Public forecast

Using degrees Celsius for public forecast. Weather courtesy of forecast.io.

Closest aviation weather report (METAR) to Camará Airport

Report is more than 6 hours old.

Closest report is Lethem Airport, 43.9 nm (81.4 km) SSE. Retrieved 2020/01/26 21:00 UTC (15 hours ago):

SYLT 262100Z 09010KT 9999 SCT028 32/23 Q//// NOSIG

Closest aviation forecast (TAF) to Camará Airport

Forecast is more than 12 hours old.

Closest forecast is Lethem Airport, 43.9 nm (81.4 km) SSE. Retrieved 2020/01/26 12:00 UTC (24 hours ago):

TAF SYLT 261100Z 2612/2624 08010KT 9999 BKN020 PROB30 TEMPO 2515/2518 6000 SHRA BKN016